Observations for NANTES CHATEAU, France (LFRS)

LFRS 170100Z AUTO 34003KT CAVOK 16/12 Q1016 NOSIG   
LFRS 170030Z AUTO 34003KT CAVOK 16/12 Q1016 NOSIG   
LFRS 170000Z AUTO 32003KT CAVOK 17/12 Q1017 NOSIG   
LFRS 162330Z AUTO 31004KT CAVOK 17/12 Q1017 NOSIG   
LFRS 162300Z AUTO 32004KT CAVOK 18/13 Q1017 NOSIG   
LFRS 162230Z AUTO 33004KT CAVOK 19/13 Q1017 NOSIG   
LFRS 162200Z AUTO 33004KT CAVOK 20/13 Q1017 NOSIG   
LFRS 162130Z AUTO 32006KT CAVOK 20/12 Q1017 NOSIG   
LFRS 162100Z AUTO 32007KT 290V350 CAVOK 21/11 Q1017 NOSIG   
LFRS 162030Z AUTO 31009KT CAVOK 22/12 Q1017 NOSIG   
LFRS 162000Z AUTO 30007KT CAVOK 23/11 Q1016 NOSIG   
LFRS 161930Z AUTO 30008KT 270V330 CAVOK 24/11 Q1016 NOSIG   
LFRS 161900Z AUTO 30009KT 260V330 CAVOK 25/11 Q1016 NOSIG   
LFRS 161830Z AUTO 31011KT 270V330 CAVOK 26/11 Q1016 NOSIG   
LFRS 161800Z AUTO 30010KT 270V340 CAVOK 27/11 Q1016 NOSIG   
LFRS 161730Z AUTO 31011KT 270V340 CAVOK 28/10 Q1016 NOSIG   
LFRS 161700Z AUTO 33005KT 250V020 CAVOK 29/10 Q1016 NOSIG   
LFRS 161630Z AUTO 31007KT 260V040 CAVOK 29/09 Q1016 NOSIG   
LFRS 161600Z AUTO 29005KT 230V360 CAVOK 30/09 Q1016 NOSIG   
LFRS 161530Z AUTO 32006KT 270V030 CAVOK 29/08 Q1016 NOSIG   
LFRS 161500Z AUTO 32006KT 260V010 CAVOK 30/09 Q1016 NOSIG   
LFRS 161430Z AUTO VRB04KT CAVOK 29/08 Q1017 NOSIG   
LFRS 161400Z AUTO 30006KT 250V330 CAVOK 29/09 Q1017 NOSIG   
LFRS 161330Z AUTO VRB06KT CAVOK 28/08 Q1017 NOSIG   
LFRS 161300Z AUTO VRB04KT CAVOK 28/09 Q1017 NOSIG   
LFRS 161230Z AUTO 32007KT 270V350 CAVOK 28/09 Q1017 NOSIG   
LFRS 161200Z AUTO VRB04KT CAVOK 28/09 Q1018 NOSIG   
LFRS 161130Z AUTO 08006KT 020V150 CAVOK 27/09 Q1018 NOSIG   
LFRS 161100Z AUTO VRB04KT CAVOK 27/09 Q1018 NOSIG   
LFRS 161030Z AUTO 07005KT 020V130 CAVOK 27/09 Q1018 NOSIG   
LFRS 161000Z AUTO 07004KT 030V150 CAVOK 26/09 Q1018 NOSIG   
LFRS 160930Z AUTO 03004KT 340V100 CAVOK 25/11 Q1018 NOSIG   
LFRS 160900Z AUTO VRB03KT CAVOK 24/12 Q1018 NOSIG   
LFRS 160830Z AUTO VRB02KT CAVOK 23/12 Q1018 NOSIG   
LFRS 160800Z AUTO VRB02KT CAVOK 22/12 Q1018 NOSIG   
LFRS 160730Z AUTO 05004KT 020V090 CAVOK 20/12 Q1018 NOSIG   
LFRS 160700Z AUTO 07006KT 030V090 CAVOK 19/12 Q1018 NOSIG   
LFRS 160630Z AUTO 04004KT 360V080 CAVOK 18/12 Q1018 NOSIG   
LFRS 160600Z AUTO 04004KT 360V080 CAVOK 17/12 Q1018 NOSIG   
LFRS 160530Z AUTO 03003KT 360V060 CAVOK 16/12 Q1018 NOSIG   
LFRS 160500Z AUTO 02003KT CAVOK 16/12 Q1018 NOSIG   
LFRS 160430Z AUTO VRB03KT CAVOK 16/12 Q1018 NOSIG   
LFRS 160400Z AUTO 03003KT 350V060 CAVOK 16/12 Q1018 NOSIG   
LFRS 160330Z AUTO 03003KT 350V060 CAVOK 16/12 Q1018 NOSIG   
LFRS 160300Z AUTO 03004KT 350V070 CAVOK 16/12 Q1018 NOSIG   
LFRS 160230Z AUTO 02003KT 340V050 CAVOK 16/12 Q1018 NOSIG   
LFRS 160200Z AUTO 02004KT 340V050 CAVOK 17/12 Q1018 NOSIG   
LFRS 160130Z AUTO 03004KT 350V060 CAVOK 17/12 Q1018 NOSIG   
LFRS 160100Z AUTO 02005KT 330V060 CAVOK 17/12 Q1018 NOSIG   
LFRS 160030Z AUTO 01005KT 330V050 CAVOK 17/12 Q1018 NOSIG